Time;durP1;ratioP1;P1;durP2;ratioP2;P2;SDS_P1;SDS_P2;PMS_P1;PMS_P2;Temp;Humidity;BMP_temperature;BMP_pressure;BME280_temperature;BME280_humidity;BME280_pressure;Samples;Min_cycle;Max_cycle;Signal;HPM_P1;HPM_P2
2023/06/12 00:01:23;;;;;;;14.57;9.10;;;;;;;;;;6266711;28;20041;-54
2023/06/12 00:04:23;;;;;;;12.05;8.63;;;;;;;;;;6266877;28;20079;-55
2023/06/12 00:07:28;;;;;;;15.00;8.73;;;;;;;;;;6265878;28;20064;-57
2023/06/12 00:10:29;;;;;;;13.07;8.05;;;;;;;;;;6263480;28;20040;-53
2023/06/12 00:13:30;;;;;;;15.00;9.18;;;;;;;;;;6265030;28;20048;-54
2023/06/12 00:16:30;;;;;;;13.65;8.75;;;;;;;;;;6258203;28;20044;-55
2023/06/12 00:19:31;;;;;;;15.35;8.38;;;;;;;;;;6260366;28;20041;-53
2023/06/12 00:22:32;;;;;;;14.27;8.73;;;;;;;;;;6257778;28;20048;-49
2023/06/12 00:25:33;;;;;;;13.43;9.02;;;;;;;;;;6257708;28;20060;-50
2023/06/12 00:28:33;;;;;;;20.95;9.98;;;;;;;;;;6256758;28;20642;-54
2023/06/12 00:31:34;;;;;;;18.27;9.63;;;;;;;;;;6256594;28;20469;-55
2023/06/12 00:34:35;;;;;;;20.05;9.25;;;;;;;;;;6258758;28;20578;-57
2023/06/12 00:37:36;;;;;;;19.73;10.15;;;;;;;;;;6257217;28;20053;-57
2023/06/12 00:40:37;;;;;;;13.98;9.27;;;;;;;;;;6256355;28;20861;-55
2023/06/12 00:43:38;;;;;;;15.23;9.00;;;;;;;;;;6259935;28;20076;-56
2023/06/12 00:46:39;;;;;;;20.25;9.88;;;;;;;;;;6256407;28;20075;-56
2023/06/12 00:49:41;;;;;;;20.67;10.65;;;;;;;;;;6256576;28;20053;-52
2023/06/12 00:52:44;;;;;;;17.27;9.93;;;;;;;;;;6256530;28;20065;-54
2023/06/12 00:55:45;;;;;;;17.92;10.70;;;;;;;;;;6260520;28;20411;-53
2023/06/12 00:58:46;;;;;;;19.17;10.13;;;;;;;;;;6254881;28;20051;-57
2023/06/12 01:01:46;;;;;;;17.90;10.02;;;;;;;;;;6260916;28;20040;-51
2023/06/12 01:04:49;;;;;;;19.15;10.27;;;;;;;;;;6261096;28;20049;-55
2023/06/12 01:08:24;;;;;;;16.83;10.68;;;;;;;;;;6259137;28;20496;-56
2023/06/12 01:11:26;;;;;;;19.50;11.68;;;;;;;;;;6259455;28;20037;-55
2023/06/12 01:14:26;;;;;;;20.33;11.15;;;;;;;;;;6261994;28;20056;-57
2023/06/12 01:17:29;;;;;;;18.42;10.63;;;;;;;;;;6258641;28;20503;-54
2023/06/12 01:20:30;;;;;;;17.13;10.45;;;;;;;;;;6258653;28;20614;-54
2023/06/12 01:23:31;;;;;;;17.75;10.35;;;;;;;;;;6270161;28;20056;-52
2023/06/12 01:26:44;;;;;;;19.55;11.07;;;;;;;;;;6262130;28;20160;-55
2023/06/12 01:30:23;;;;;;;21.45;11.40;;;;;;;;;;6261127;28;20049;-55
2023/06/12 01:33:33;;;;;;;21.52;12.10;;;;;;;;;;6264895;28;20050;-55
2023/06/12 01:36:37;;;;;;;18.08;11.45;;;;;;;;;;6264501;28;20060;-50
2023/06/12 01:39:40;;;;;;;19.70;12.10;;;;;;;;;;6260878;28;20433;-57
2023/06/12 01:42:41;;;;;;;21.42;12.43;;;;;;;;;;6260809;28;20045;-54
2023/06/12 01:45:42;;;;;;;22.98;11.45;;;;;;;;;;6261782;28;20086;-57
2023/06/12 01:48:42;;;;;;;17.17;10.18;;;;;;;;;;6260315;28;20147;-54
2023/06/12 01:51:43;;;;;;;16.90;9.80;;;;;;;;;;6259867;28;20055;-58
2023/06/12 01:54:49;;;;;;;14.52;9.02;;;;;;;;;;6261699;28;20049;-55
2023/06/12 01:57:50;;;;;;;13.70;8.60;;;;;;;;;;6261558;28;20080;-51
2023/06/12 02:00:53;;;;;;;14.02;9.07;;;;;;;;;;6258475;28;20051;-57
2023/06/12 02:03:56;;;;;;;15.02;9.30;;;;;;;;;;6261006;28;20374;-56
2023/06/12 02:06:56;;;;;;;16.48;9.55;;;;;;;;;;6260519;28;20536;-52
2023/06/12 02:09:57;;;;;;;17.50;9.23;;;;;;;;;;6256183;28;20091;-55
2023/06/12 02:12:58;;;;;;;16.00;8.95;;;;;;;;;;6254684;28;20033;-58
2023/06/12 02:16:03;;;;;;;15.73;9.05;;;;;;;;;;6253904;28;20052;-55
2023/06/12 02:19:03;;;;;;;16.80;9.30;;;;;;;;;;6254861;28;20044;-49
2023/06/12 02:22:04;;;;;;;17.63;9.02;;;;;;;;;;6254951;28;20037;-51
2023/06/12 02:25:07;;;;;;;15.93;8.93;;;;;;;;;;6255988;28;20103;-56
2023/06/12 02:28:07;;;;;;;14.18;9.13;;;;;;;;;;6256798;28;20567;-56
2023/06/12 02:31:08;;;;;;;13.45;8.68;;;;;;;;;;6260987;28;20052;-55
2023/06/12 02:34:09;;;;;;;16.23;8.88;;;;;;;;;;6259800;28;20044;-56
2023/06/12 02:37:10;;;;;;;13.25;8.65;;;;;;;;;;6259250;28;20037;-56
2023/06/12 02:40:11;;;;;;;15.02;8.95;;;;;;;;;;6262723;28;20044;-56
2023/06/12 02:43:15;;;;;;;15.67;9.53;;;;;;;;;;6258439;28;20128;-55
2023/06/12 02:46:15;;;;;;;18.83;9.80;;;;;;;;;;6260758;28;20282;-54
2023/06/12 02:49:19;;;;;;;16.13;10.13;;;;;;;;;;6261872;28;20052;-53
2023/06/12 02:52:20;;;;;;;17.52;10.90;;;;;;;;;;6261089;28;20055;-56
2023/06/12 02:55:23;;;;;;;14.50;9.80;;;;;;;;;;6258281;28;20098;-55
2023/06/12 02:58:24;;;;;;;18.95;10.48;;;;;;;;;;6258269;28;20455;-56
2023/06/12 03:01:25;;;;;;;17.48;10.23;;;;;;;;;;6263638;28;20095;-54
2023/06/12 03:04:27;;;;;;;18.03;10.37;;;;;;;;;;6260728;28;20098;-50
2023/06/12 03:07:28;;;;;;;16.20;10.85;;;;;;;;;;6259260;28;20487;-54
2023/06/12 03:10:29;;;;;;;17.80;10.40;;;;;;;;;;6257278;28;20911;-50
2023/06/12 03:13:30;;;;;;;16.42;10.68;;;;;;;;;;6263654;28;20067;-55
2023/06/12 03:16:32;;;;;;;14.10;9.70;;;;;;;;;;6261113;28;20491;-51
2023/06/12 03:19:32;;;;;;;18.73;10.30;;;;;;;;;;6260990;28;20045;-56
2023/06/12 03:22:33;;;;;;;16.42;10.18;;;;;;;;;;6258496;28;20056;-56
2023/06/12 03:25:33;;;;;;;17.08;10.40;;;;;;;;;;6258494;28;20142;-54
2023/06/12 03:28:34;;;;;;;18.20;10.40;;;;;;;;;;6259147;28;20065;-55
2023/06/12 03:31:35;;;;;;;16.48;9.88;;;;;;;;;;6256153;28;20037;-56
2023/06/12 03:34:36;;;;;;;14.32;9.60;;;;;;;;;;6258348;28;20102;-57
2023/06/12 03:37:36;;;;;;;21.08;10.32;;;;;;;;;;6261624;28;20055;-56
2023/06/12 03:40:37;;;;;;;15.82;9.52;;;;;;;;;;6258758;28;20045;-57
2023/06/12 03:43:38;;;;;;;15.50;10.23;;;;;;;;;;6258615;28;20129;-56
2023/06/12 03:46:38;;;;;;;16.85;10.35;;;;;;;;;;6260114;28;20049;-56
2023/06/12 03:49:40;;;;;;;20.13;11.07;;;;;;;;;;6257546;28;20055;-56
2023/06/12 03:52:40;;;;;;;19.77;11.82;;;;;;;;;;6257062;28;20052;-56
2023/06/12 03:55:42;;;;;;;19.48;12.63;;;;;;;;;;6257736;28;20054;-57
2023/06/12 03:58:42;;;;;;;24.88;15.35;;;;;;;;;;6259424;28;20041;-53
2023/06/12 04:01:43;;;;;;;21.58;15.57;;;;;;;;;;6260954;28;20048;-56
2023/06/12 04:04:43;;;;;;;24.65;15.63;;;;;;;;;;6257697;28;20049;-56
2023/06/12 04:07:44;;;;;;;23.38;15.32;;;;;;;;;;6259220;28;20990;-52
2023/06/12 04:10:45;;;;;;;24.40;15.82;;;;;;;;;;6258957;28;20120;-56
2023/06/12 04:13:46;;;;;;;23.38;15.05;;;;;;;;;;6254848;28;20451;-57
2023/06/12 04:16:46;;;;;;;22.17;13.90;;;;;;;;;;6259546;28;20041;-56
2023/06/12 04:19:49;;;;;;;25.35;12.82;;;;;;;;;;6259804;28;20045;-56
2023/06/12 04:22:50;;;;;;;20.30;13.80;;;;;;;;;;6256373;28;20049;-57
2023/06/12 04:25:51;;;;;;;18.15;12.90;;;;;;;;;;6256604;28;20052;-54
2023/06/12 04:28:54;;;;;;;23.25;13.77;;;;;;;;;;6256463;28;20048;-53
2023/06/12 04:31:55;;;;;;;19.00;12.98;;;;;;;;;;6260097;28;20055;-54
2023/06/12 04:34:56;;;;;;;21.58;12.98;;;;;;;;;;6260914;28;20110;-57
2023/06/12 04:37:57;;;;;;;22.30;11.77;;;;;;;;;;6258447;28;20796;-55
2023/06/12 04:40:58;;;;;;;20.08;12.00;;;;;;;;;;6258960;28;20040;-56
2023/06/12 04:43:59;;;;;;;19.97;11.43;;;;;;;;;;6256556;28;20072;-57
2023/06/12 04:47:11;;;;;;;16.30;9.77;;;;;;;;;;6257899;28;20139;-55
2023/06/12 04:50:12;;;;;;;16.38;9.23;;;;;;;;;;6254133;28;20077;-57
2023/06/12 04:53:19;;;;;;;18.10;10.10;;;;;;;;;;6256104;28;20118;-57
2023/06/12 04:56:21;;;;;;;19.27;11.00;;;;;;;;;;6256149;28;20168;-57
2023/06/12 04:59:22;;;;;;;;;;;;;;;;;;6258904;28;20160;-50
2023/06/12 05:02:22;;;;;;;16.05;9.85;;;;;;;;;;6254177;28;19920;-56
2023/06/12 05:05:23;;;;;;;14.90;9.65;;;;;;;;;;6254830;28;20037;-52
2023/06/12 05:08:24;;;;;;;19.15;10.32;;;;;;;;;;6266286;28;20067;-54
2023/06/12 05:11:26;;;;;;;13.80;8.97;;;;;;;;;;6263866;28;20041;-55
2023/06/12 05:14:27;;;;;;;15.13;9.02;;;;;;;;;;6263968;28;20108;-57
2023/06/12 05:17:28;;;;;;;15.43;8.73;;;;;;;;;;6265295;28;20103;-57
2023/06/12 05:20:29;;;;;;;12.40;7.22;;;;;;;;;;6265116;28;20148;-56
2023/06/12 05:23:29;;;;;;;15.18;9.23;;;;;;;;;;6264003;28;20040;-57
2023/06/12 05:26:30;;;;;;;15.48;6.72;;;;;;;;;;6263974;28;20072;-56
2023/06/12 05:29:31;;;;;;;12.20;6.10;;;;;;;;;;6260719;28;20503;-56
2023/06/12 05:32:31;;;;;;;12.95;6.18;;;;;;;;;;6263017;28;20053;-57
2023/06/12 05:35:32;;;;;;;10.32;6.22;;;;;;;;;;6257591;28;20126;-57
2023/06/12 05:38:32;;;;;;;14.38;6.30;;;;;;;;;;6255369;28;20041;-54
2023/06/12 05:41:33;;;;;;;9.95;5.60;;;;;;;;;;6259353;28;20419;-56
2023/06/12 05:44:34;;;;;;;10.35;5.70;;;;;;;;;;6253537;28;20052;-57
2023/06/12 05:47:34;;;;;;;13.02;5.75;;;;;;;;;;6253884;28;20077;-56
2023/06/12 05:50:35;;;;;;;9.88;5.28;;;;;;;;;;6251697;28;20060;-57
2023/06/12 05:53:36;;;;;;;11.63;4.85;;;;;;;;;;6250835;28;20460;-57
2023/06/12 05:56:36;;;;;;;9.93;5.25;;;;;;;;;;6253304;28;20040;-51
2023/06/12 05:59:37;;;;;;;17.30;6.85;;;;;;;;;;6259515;28;20564;-54
2023/06/12 06:02:38;;;;;;;10.07;5.50;;;;;;;;;;6257779;28;20128;-54
2023/06/12 06:05:39;;;;;;;9.00;5.07;;;;;;;;;;6254664;28;20420;-55
2023/06/12 06:08:40;;;;;;;10.88;6.50;;;;;;;;;;6255004;28;20087;-55
2023/06/12 06:11:41;;;;;;;9.70;5.47;;;;;;;;;;6253843;28;20427;-55
2023/06/12 06:14:41;;;;;;;8.38;4.80;;;;;;;;;;6252867;28;20103;-50
2023/06/12 06:17:42;;;;;;;10.18;5.35;;;;;;;;;;6253931;28;20051;-56
2023/06/12 06:20:42;;;;;;;11.02;5.65;;;;;;;;;;6254282;28;20415;-55
2023/06/12 06:23:43;;;;;;;11.07;6.10;;;;;;;;;;6253488;28;20059;-53
2023/06/12 06:26:43;;;;;;;12.85;5.35;;;;;;;;;;6254763;28;20524;-55
2023/06/12 06:29:44;;;;;;;10.88;4.93;;;;;;;;;;6253721;28;20090;-53
2023/06/12 06:32:46;;;;;;;8.00;4.47;;;;;;;;;;6253475;28;20080;-56
2023/06/12 06:35:47;;;;;;;;;;;;;;;;;;6254486;28;20087;-56
2023/06/12 06:38:47;;;;;;;10.80;4.47;;;;;;;;;;6253265;28;20273;-54
2023/06/12 06:41:48;;;;;;;9.07;4.65;;;;;;;;;;6252287;28;20593;-55
2023/06/12 06:44:51;;;;;;;9.15;4.22;;;;;;;;;;6258020;28;20040;-52
2023/06/12 06:47:52;;;;;;;7.65;4.47;;;;;;;;;;6258121;28;20044;-55
2023/06/12 06:50:53;;;;;;;8.27;4.18;;;;;;;;;;6254528;28;20059;-53
2023/06/12 06:53:53;;;;;;;9.10;4.20;;;;;;;;;;6254328;28;20163;-55
2023/06/12 06:56:54;;;;;;;8.93;4.90;;;;;;;;;;6254247;28;20407;-55
2023/06/12 06:59:56;;;;;;;9.07;4.70;;;;;;;;;;6253179;28;20063;-55
2023/06/12 07:02:56;;;;;;;9.63;4.93;;;;;;;;;;6251074;28;20120;-55
2023/06/12 07:05:57;;;;;;;8.73;5.03;;;;;;;;;;6256201;28;20484;-56
2023/06/12 07:08:58;;;;;;;10.30;4.88;;;;;;;;;;6260193;28;20041;-57
2023/06/12 07:11:58;;;;;;;8.95;4.60;;;;;;;;;;6254834;28;20168;-57
2023/06/12 07:14:59;;;;;;;7.88;4.70;;;;;;;;;;6257980;28;20041;-53
2023/06/12 07:18:00;;;;;;;10.02;4.78;;;;;;;;;;6258268;28;20143;-57
2023/06/12 07:21:00;;;;;;;9.77;5.15;;;;;;;;;;6256408;28;20044;-57
2023/06/12 07:24:01;;;;;;;9.07;5.25;;;;;;;;;;6256981;28;20055;-57
2023/06/12 07:27:02;;;;;;;13.80;5.70;;;;;;;;;;6257793;28;20496;-56
2023/06/12 07:30:05;;;;;;;8.03;4.57;;;;;;;;;;6258349;28;20103;-57
2023/06/12 07:33:06;;;;;;;10.23;5.07;;;;;;;;;;6257885;28;20110;-57
2023/06/12 07:36:07;;;;;;;11.75;5.53;;;;;;;;;;6258411;28;20041;-57
2023/06/12 07:39:07;;;;;;;10.30;4.85;;;;;;;;;;6257519;28;20083;-53
2023/06/12 07:42:08;;;;;;;8.40;4.90;;;;;;;;;;6256932;28;20080;-54
2023/06/12 07:45:09;;;;;;;7.55;4.80;;;;;;;;;;6254340;28;20393;-53
2023/06/12 07:48:10;;;;;;;7.47;4.77;;;;;;;;;;6256269;28;20064;-56
2023/06/12 07:51:10;;;;;;;12.65;5.07;;;;;;;;;;6258129;28;20442;-57
2023/06/12 07:54:12;;;;;;;13.85;6.43;;;;;;;;;;6255498;28;20044;-56
2023/06/12 07:57:12;;;;;;;9.93;4.38;;;;;;;;;;6257697;28;20601;-56
2023/06/12 08:00:14;;;;;;;11.18;4.47;;;;;;;;;;6257650;28;20045;-54
2023/06/12 08:03:15;;;;;;;8.17;4.60;;;;;;;;;;6256043;28;20053;-56
2023/06/12 08:06:16;;;;;;;8.63;4.35;;;;;;;;;;6255326;28;20123;-58
2023/06/12 08:09:16;;;;;;;8.20;4.35;;;;;;;;;;6257982;28;20041;-55
2023/06/12 08:12:17;;;;;;;9.38;4.47;;;;;;;;;;6255218;28;20235;-58
2023/06/12 08:15:19;;;;;;;9.15;4.95;;;;;;;;;;6255636;28;20102;-56
2023/06/12 08:18:20;;;;;;;7.07;4.28;;;;;;;;;;6257700;28;20051;-57
2023/06/12 08:21:21;;;;;;;9.20;4.40;;;;;;;;;;6257499;28;20040;-58
2023/06/12 08:24:22;;;;;;;8.57;4.22;;;;;;;;;;6256541;28;20045;-55
2023/06/12 08:27:22;;;;;;;8.90;4.97;;;;;;;;;;6254514;28;20578;-57
2023/06/12 08:30:23;;;;;;;8.30;4.63;;;;;;;;;;6256003;28;20112;-56
2023/06/12 08:33:24;;;;;;;9.88;4.95;;;;;;;;;;6256196;28;20037;-58
2023/06/12 08:36:26;;;;;;;10.02;4.60;;;;;;;;;;6262915;28;20048;-58
2023/06/12 08:39:26;;;;;;;8.80;5.27;;;;;;;;;;6256999;28;20308;-57
2023/06/12 08:42:27;;;;;;;10.63;4.53;;;;;;;;;;6256323;28;20038;-57
2023/06/12 08:45:31;;;;;;;12.85;5.28;;;;;;;;;;6256427;28;20053;-57
2023/06/12 08:48:32;;;;;;;11.00;4.80;;;;;;;;;;6253987;28;20107;-53
2023/06/12 08:51:33;;;;;;;14.98;5.30;;;;;;;;;;6256980;28;20088;-58
2023/06/12 08:54:35;;;;;;;8.63;4.70;;;;;;;;;;6256297;28;20071;-58
2023/06/12 08:57:36;;;;;;;8.98;4.82;;;;;;;;;;6256349;28;20072;-56
2023/06/12 09:00:37;;;;;;;8.73;4.70;;;;;;;;;;6254027;28;20404;-55
2023/06/12 09:03:43;;;;;;;11.77;4.97;;;;;;;;;;6255077;28;20128;-50
2023/06/12 09:06:45;;;;;;;12.43;4.90;;;;;;;;;;6256238;28;20086;-49
2023/06/12 09:09:46;;;;;;;10.13;4.90;;;;;;;;;;6256616;28;20076;-58
2023/06/12 09:12:47;;;;;;;11.15;5.22;;;;;;;;;;6252964;28;20045;-58
2023/06/12 09:15:55;;;;;;;11.63;5.10;;;;;;;;;;6255800;28;20639;-54
2023/06/12 09:18:56;;;;;;;8.52;4.70;;;;;;;;;;6254050;28;20045;-57
2023/06/12 09:21:56;;;;;;;11.85;5.00;;;;;;;;;;6252468;28;20522;-57
2023/06/12 09:24:57;;;;;;;12.77;4.60;;;;;;;;;;6255319;28;20053;-56
2023/06/12 09:27:58;;;;;;;9.77;4.80;;;;;;;;;;6256078;28;20085;-58
2023/06/12 09:30:59;;;;;;;9.77;5.00;;;;;;;;;;6256465;28;20392;-57
2023/06/12 09:34:02;;;;;;;12.27;5.38;;;;;;;;;;6253356;28;20114;-55
2023/06/12 09:37:08;;;;;;;9.25;4.47;;;;;;;;;;6255389;28;20048;-55
2023/06/12 09:40:10;;;;;;;11.32;4.60;;;;;;;;;;6254936;28;20072;-54
2023/06/12 09:43:16;;;;;;;9.13;4.45;;;;;;;;;;6254390;28;20132;-55
2023/06/12 09:46:16;;;;;;;10.73;4.70;;;;;;;;;;6254714;28;20535;-57
2023/06/12 09:49:23;;;;;;;7.77;4.43;;;;;;;;;;6255172;28;20617;-57
2023/06/12 09:52:24;;;;;;;10.35;4.70;;;;;;;;;;6253494;28;20160;-54
2023/06/12 09:55:27;;;;;;;8.60;4.60;;;;;;;;;;6251950;28;20057;-56
2023/06/12 09:58:28;;;;;;;10.52;4.45;;;;;;;;;;6255355;28;20043;-56
2023/06/12 10:01:29;;;;;;;8.40;4.73;;;;;;;;;;6254000;28;20072;-54
2023/06/12 10:04:47;;;;;;;9.03;5.03;;;;;;;;;;6253893;28;20477;-57
2023/06/12 10:07:52;;;;;;;10.65;4.38;;;;;;;;;;6253437;28;20048;-56
2023/06/12 10:10:52;;;;;;;13.70;4.32;;;;;;;;;;6258667;28;20496;-56
2023/06/12 10:13:54;;;;;;;9.03;4.77;;;;;;;;;;6262070;28;20049;-57
2023/06/12 10:16:56;;;;;;;10.00;4.47;;;;;;;;;;6260934;28;20581;-58
2023/06/12 10:19:57;;;;;;;;;;;;;;;;;;6260754;28;20140;-57
2023/06/12 10:22:58;;;;;;;8.98;4.60;;;;;;;;;;6260528;28;19927;-55
2023/06/12 10:26:00;;;;;;;9.75;4.30;;;;;;;;;;6261669;28;20045;-57
2023/06/12 10:29:00;;;;;;;10.95;4.68;;;;;;;;;;6259853;28;20043;-57
2023/06/12 10:32:06;;;;;;;9.93;4.80;;;;;;;;;;6262419;28;20040;-58
2023/06/12 10:35:07;;;;;;;10.63;4.97;;;;;;;;;;6257985;28;20694;-59
2023/06/12 10:38:11;;;;;;;8.93;5.22;;;;;;;;;;6256036;28;20072;-59
2023/06/12 10:41:12;;;;;;;9.02;4.80;;;;;;;;;;6255569;28;20631;-58
2023/06/12 10:44:38;;;;;;;10.00;4.57;;;;;;;;;;6255429;28;20084;-57
2023/06/12 10:47:38;;;;;;;10.07;5.10;;;;;;;;;;6257017;28;20055;-57
2023/06/12 10:50:43;;;;;;;7.67;5.07;;;;;;;;;;6261515;28;20140;-57
2023/06/12 10:53:44;;;;;;;9.77;5.10;;;;;;;;;;6264335;28;20056;-56
2023/06/12 10:57:11;;;;;;;10.20;5.00;;;;;;;;;;6258914;28;20044;-57
2023/06/12 11:00:16;;;;;;;11.80;5.32;;;;;;;;;;6258456;28;20047;-53
2023/06/12 11:03:29;;;;;;;9.30;5.10;;;;;;;;;;6261616;28;20127;-57
2023/06/12 11:06:32;;;;;;;;;;;;;;;;;;6261491;28;20494;-57
2023/06/12 11:09:40;;;;;;;9.45;4.80;;;;;;;;;;6258966;28;20043;-55
2023/06/12 11:12:48;;;;;;;12.35;5.15;;;;;;;;;;6258971;28;20148;-55
2023/06/12 11:15:51;;;;;;;10.27;4.88;;;;;;;;;;6257264;28;20050;-57
2023/06/12 11:19:07;;;;;;;9.02;4.78;;;;;;;;;;6261312;28;20677;-57
2023/06/12 11:22:08;;;;;;;9.18;4.47;;;;;;;;;;6259022;28;20470;-53
2023/06/12 11:25:09;;;;;;;14.23;5.07;;;;;;;;;;6258035;28;20120;-57
2023/06/12 11:28:12;;;;;;;11.13;4.68;;;;;;;;;;6260037;28;20094;-58
2023/06/12 11:31:12;;;;;;;10.23;4.38;;;;;;;;;;6258683;28;20041;-58
2023/06/12 11:34:13;;;;;;;11.30;5.00;;;;;;;;;;6260205;28;20411;-57
2023/06/12 11:37:17;;;;;;;15.40;5.33;;;;;;;;;;6262985;28;20045;-57
2023/06/12 11:40:19;;;;;;;8.18;4.40;;;;;;;;;;6261697;28;20480;-57
2023/06/12 11:43:21;;;;;;;12.40;5.47;;;;;;;;;;6261528;28;20298;-57
2023/06/12 11:46:22;;;;;;;12.18;5.63;;;;;;;;;;6259060;28;20082;-55
2023/06/12 11:49:22;;;;;;;8.63;4.60;;;;;;;;;;6257234;28;20041;-55
2023/06/12 11:52:23;;;;;;;10.00;4.97;;;;;;;;;;6256317;28;20143;-56
2023/06/12 11:55:25;;;;;;;10.00;5.10;;;;;;;;;;6258056;28;20041;-52
2023/06/12 11:58:41;;;;;;;12.82;5.57;;;;;;;;;;6258192;28;20045;-57
2023/06/12 12:01:45;;;;;;;11.95;5.20;;;;;;;;;;6257491;28;20044;-58
2023/06/12 12:04:46;;;;;;;9.85;5.32;;;;;;;;;;6259254;28;20059;-55
2023/06/12 12:07:52;;;;;;;9.50;5.10;;;;;;;;;;6259487;28;20041;-57
2023/06/12 12:10:53;;;;;;;8.15;5.05;;;;;;;;;;6261561;28;20406;-56
2023/06/12 12:14:00;;;;;;;9.00;5.00;;;;;;;;;;6260995;28;20094;-53
2023/06/12 12:17:06;;;;;;;9.88;4.90;;;;;;;;;;6259954;28;20170;-53
2023/06/12 12:20:17;;;;;;;9.15;5.10;;;;;;;;;;6259595;28;20041;-52
2023/06/12 12:23:23;;;;;;;11.20;5.00;;;;;;;;;;6256222;28;20043;-58
2023/06/12 12:26:25;;;;;;;10.63;5.03;;;;;;;;;;6256237;28;20091;-55
2023/06/12 12:29:26;;;;;;;10.82;4.70;;;;;;;;;;6258031;28;20203;-57
2023/06/12 12:32:27;;;;;;;9.80;5.00;;;;;;;;;;6256746;28;20045;-58
2023/06/12 12:35:28;;;;;;;10.53;5.20;;;;;;;;;;6257065;28;20072;-57
2023/06/12 12:38:28;;;;;;;12.07;5.67;;;;;;;;;;6258172;28;20060;-57
2023/06/12 12:41:29;;;;;;;12.60;5.00;;;;;;;;;;6258178;28;20045;-55
2023/06/12 12:44:30;;;;;;;7.53;4.67;;;;;;;;;;6256299;28;20136;-57
2023/06/12 12:47:31;;;;;;;12.17;5.13;;;;;;;;;;6258211;28;20083;-55
2023/06/12 12:50:32;;;;;;;8.45;4.75;;;;;;;;;;6259206;28;20167;-57
2023/06/12 12:53:33;;;;;;;13.63;5.47;;;;;;;;;;6254789;28;20155;-54
2023/06/12 12:56:33;;;;;;;13.53;11.87;;;;;;;;;;6256358;28;20128;-57
2023/06/12 12:59:34;;;;;;;11.10;5.50;;;;;;;;;;6256564;28;20049;-56
2023/06/12 13:02:39;;;;;;;18.50;5.80;;;;;;;;;;6255884;28;20056;-59
2023/06/12 13:05:40;;;;;;;13.57;6.00;;;;;;;;;;6255125;28;20151;-53
2023/06/12 13:08:40;;;;;;;12.43;5.63;;;;;;;;;;6257331;28;20040;-55
2023/06/12 13:11:42;;;;;;;14.23;5.80;;;;;;;;;;6256673;28;20530;-58
2023/06/12 13:14:45;;;;;;;12.07;5.70;;;;;;;;;;6255500;28;20306;-58
2023/06/12 13:17:46;;;;;;;14.32;5.63;;;;;;;;;;6257457;28;20032;-57
2023/06/12 13:20:46;;;;;;;11.03;5.20;;;;;;;;;;6255974;28;20049;-56
2023/06/12 13:23:47;;;;;;;10.13;5.40;;;;;;;;;;6252885;28;20091;-57
2023/06/12 13:26:47;;;;;;;10.47;5.30;;;;;;;;;;6254129;28;20052;-57
2023/06/12 13:29:48;;;;;;;11.37;6.07;;;;;;;;;;6263568;28;20080;-56
2023/06/12 13:32:49;;;;;;;16.50;5.67;;;;;;;;;;6257462;28;20037;-59
2023/06/12 13:35:49;;;;;;;10.03;5.53;;;;;;;;;;6257220;28;20451;-51
2023/06/12 13:38:50;;;;;;;10.40;5.87;;;;;;;;;;6257914;28;20053;-57
2023/06/12 13:41:52;;;;;;;10.80;5.77;;;;;;;;;;6260363;28;20052;-58
2023/06/12 13:44:52;;;;;;;10.68;5.78;;;;;;;;;;6256275;28;20048;-57
2023/06/12 13:47:54;;;;;;;12.53;5.57;;;;;;;;;;6257298;28;20045;-56
2023/06/12 13:50:54;;;;;;;12.17;5.87;;;;;;;;;;6255455;28;20053;-57
2023/06/12 13:53:55;;;;;;;10.43;5.53;;;;;;;;;;6254602;28;20440;-58
2023/06/12 13:56:55;;;;;;;12.17;5.60;;;;;;;;;;6256869;28;20049;-55
2023/06/12 13:59:56;;;;;;;11.83;5.97;;;;;;;;;;6256482;28;20040;-59
2023/06/12 14:02:57;;;;;;;10.03;5.73;;;;;;;;;;6254749;28;20044;-57
2023/06/12 14:05:57;;;;;;;13.80;6.27;;;;;;;;;;6253780;28;20045;-55
2023/06/12 14:08:58;;;;;;;10.63;5.83;;;;;;;;;;6255443;28;20484;-56
2023/06/12 14:11:58;;;;;;;14.80;5.97;;;;;;;;;;6254598;28;20416;-58
2023/06/12 14:14:59;;;;;;;13.63;6.40;;;;;;;;;;6256110;28;20084;-57
2023/06/12 14:18:03;;;;;;;15.80;7.20;;;;;;;;;;6255763;28;20112;-57
2023/06/12 14:21:07;;;;;;;14.30;5.97;;;;;;;;;;6263009;28;20964;-58
2023/06/12 14:24:07;;;;;;;11.38;5.95;;;;;;;;;;6261116;28;20403;-57
2023/06/12 14:27:08;;;;;;;10.83;5.67;;;;;;;;;;6264731;28;20040;-57
2023/06/12 14:30:09;;;;;;;11.50;5.63;;;;;;;;;;6264402;28;20132;-56
2023/06/12 14:33:09;;;;;;;13.20;6.33;;;;;;;;;;6249217;28;20072;-53
2023/06/12 14:36:10;;;;;;;12.57;6.07;;;;;;;;;;6254174;28;20080;-52
2023/06/12 14:39:12;;;;;;;12.93;6.43;;;;;;;;;;6259242;28;20036;-57
2023/06/12 14:42:13;;;;;;;14.35;6.03;;;;;;;;;;6253424;28;20056;-57
2023/06/12 14:45:13;;;;;;;13.10;5.93;;;;;;;;;;6256660;28;20128;-57
2023/06/12 14:48:14;;;;;;;13.60;6.13;;;;;;;;;;6253733;28;20080;-55
2023/06/12 14:51:14;;;;;;;12.50;6.33;;;;;;;;;;6251686;28;20064;-57
2023/06/12 14:54:15;;;;;;;13.27;6.17;;;;;;;;;;6253461;28;20055;-52
2023/06/12 14:57:15;;;;;;;12.37;6.53;;;;;;;;;;6255522;28;20045;-58
2023/06/12 15:00:17;;;;;;;16.23;6.23;;;;;;;;;;6254826;28;20041;-57
2023/06/12 15:03:18;;;;;;;14.20;6.40;;;;;;;;;;6249452;28;20978;-51
2023/06/12 15:06:18;;;;;;;16.10;6.45;;;;;;;;;;6260908;28;20075;-56
2023/06/12 15:09:19;;;;;;;10.53;5.70;;;;;;;;;;6260699;28;20044;-56
2023/06/12 15:12:20;;;;;;;16.00;5.70;;;;;;;;;;6256813;28;20171;-57
2023/06/12 15:15:20;;;;;;;9.63;5.53;;;;;;;;;;6262425;28;20056;-53
2023/06/12 15:18:21;;;;;;;15.07;5.90;;;;;;;;;;6262129;28;20504;-57
2023/06/12 15:21:22;;;;;;;11.33;6.03;;;;;;;;;;6260772;28;20059;-56
2023/06/12 15:24:23;;;;;;;12.63;5.83;;;;;;;;;;6261868;28;20135;-56
2023/06/12 15:27:23;;;;;;;13.33;5.80;;;;;;;;;;6262990;28;20163;-54
2023/06/12 15:30:24;;;;;;;12.53;5.90;;;;;;;;;;6263354;28;20049;-55
2023/06/12 15:33:25;;;;;;;12.53;6.00;;;;;;;;;;6256610;28;20037;-57
2023/06/12 15:36:25;;;;;;;12.93;6.40;;;;;;;;;;6258105;28;20429;-58
2023/06/12 15:39:26;;;;;;;13.67;5.87;;;;;;;;;;6257149;28;20048;-56
2023/06/12 15:42:26;;;;;;;14.50;5.70;;;;;;;;;;6253185;28;20048;-56
2023/06/12 15:45:27;;;;;;;10.43;5.70;;;;;;;;;;6257790;28;20052;-56
2023/06/12 15:48:28;;;;;;;14.00;5.87;;;;;;;;;;6258971;28;20124;-57
2023/06/12 15:51:28;;;;;;;14.23;5.83;;;;;;;;;;6256058;28;20048;-56
2023/06/12 15:54:30;;;;;;;14.00;6.23;;;;;;;;;;6256070;28;20094;-58
2023/06/12 15:57:30;;;;;;;15.43;6.30;;;;;;;;;;6253040;28;20451;-54
2023/06/12 16:00:31;;;;;;;15.00;5.90;;;;;;;;;;6261457;28;20102;-56
2023/06/12 16:03:32;;;;;;;14.07;6.10;;;;;;;;;;6261421;28;20044;-56
2023/06/12 16:06:33;;;;;;;13.52;6.05;;;;;;;;;;6260167;28;20045;-56
2023/06/12 16:09:33;;;;;;;11.47;5.47;;;;;;;;;;6265390;28;20423;-51
2023/06/12 16:12:34;;;;;;;11.60;6.43;;;;;;;;;;6257826;28;20396;-58
2023/06/12 16:15:35;;;;;;;15.17;6.67;;;;;;;;;;6253036;28;20037;-53
2023/06/12 16:18:35;;;;;;;13.00;6.33;;;;;;;;;;6250818;28;20063;-55
2023/06/12 16:21:36;;;;;;;12.13;6.23;;;;;;;;;;6252250;28;20458;-57
2023/06/12 16:24:37;;;;;;;16.23;7.73;;;;;;;;;;6249046;28;20060;-56
2023/06/12 16:27:37;;;;;;;18.20;7.17;;;;;;;;;;6252661;28;20044;-58
2023/06/12 16:30:38;;;;;;;13.33;6.50;;;;;;;;;;6250155;28;20443;-56
2023/06/12 16:33:39;;;;;;;16.40;6.70;;;;;;;;;;6248635;28;20823;-57
2023/06/12 16:36:40;;;;;;;19.17;6.18;;;;;;;;;;6253866;28;20045;-56
2023/06/12 16:39:41;;;;;;;13.03;6.20;;;;;;;;;;6255097;28;20047;-55
2023/06/12 16:42:42;;;;;;;19.10;6.22;;;;;;;;;;6251987;28;20040;-58
2023/06/12 16:45:42;;;;;;;13.30;6.17;;;;;;;;;;6255663;28;20059;-57
2023/06/12 16:48:43;;;;;;;18.40;6.73;;;;;;;;;;6254106;28;20720;-57
2023/06/12 16:51:44;;;;;;;14.13;7.23;;;;;;;;;;6249253;28;20044;-58
2023/06/12 16:54:44;;;;;;;17.33;8.40;;;;;;;;;;6252708;28;20044;-55
2023/06/12 16:57:45;;;;;;;18.57;7.17;;;;;;;;;;6255227;28;20053;-54
2023/06/12 17:00:46;;;;;;;14.83;6.37;;;;;;;;;;6254379;28;20135;-54
2023/06/12 17:03:46;;;;;;;14.17;6.60;;;;;;;;;;6247430;28;20091;-58
2023/06/12 17:06:47;;;;;;;17.30;6.53;;;;;;;;;;6253412;28;20083;-52
2023/06/12 17:09:47;;;;;;;13.67;6.47;;;;;;;;;;6249766;28;20057;-57
2023/06/12 17:12:48;;;;;;;10.40;5.73;;;;;;;;;;6242201;28;20052;-58
2023/06/12 17:15:50;;;;;;;12.63;6.33;;;;;;;;;;6250378;28;20053;-58
2023/06/12 17:18:50;;;;;;;;;;;;;;;;;;6251363;28;20151;-57
2023/06/12 17:21:51;;;;;;;11.07;5.88;;;;;;;;;;6249661;28;19924;-58
2023/06/12 17:24:52;;;;;;;12.60;6.03;;;;;;;;;;6260144;28;20135;-56
2023/06/12 17:27:53;;;;;;;15.57;6.60;;;;;;;;;;6260622;28;20049;-59
2023/06/12 17:30:54;;;;;;;13.75;6.38;;;;;;;;;;6254802;28;20381;-60
2023/06/12 17:33:54;;;;;;;12.17;5.60;;;;;;;;;;6255339;28;20047;-55
2023/06/12 17:36:55;;;;;;;12.97;6.03;;;;;;;;;;6260875;28;21343;-56
2023/06/12 17:39:55;;;;;;;15.13;6.70;;;;;;;;;;6257352;28;20106;-57
2023/06/12 17:42:56;;;;;;;17.33;7.03;;;;;;;;;;6259003;28;21137;-57
2023/06/12 17:45:57;;;;;;;29.03;10.20;;;;;;;;;;6264145;28;20132;-55
2023/06/12 17:48:58;;;;;;;31.63;11.93;;;;;;;;;;6256008;28;20049;-56
2023/06/12 17:51:58;;;;;;;26.67;11.60;;;;;;;;;;6256085;28;20309;-52
2023/06/12 17:54:59;;;;;;;19.40;9.67;;;;;;;;;;6264116;28;20064;-52